sensor_id;sensor_type;location;lat;lon;timestamp;pressure;altitude;pressure_sealevel;temperature;humidity
50702;BME280;36670;50.094;8.496;2023-03-23T00:00:52;99488.09;;;15.20;49.35
50702;BME280;36670;50.094;8.496;2023-03-23T00:03:19;99488.47;;;15.32;48.70
50702;BME280;36670;50.094;8.496;2023-03-23T00:05:47;99484.38;;;15.44;48.88
50702;BME280;36670;50.094;8.496;2023-03-23T00:08:17;99471.78;;;15.32;48.67
50702;BME280;36670;50.094;8.496;2023-03-23T00:10:42;99487.44;;;15.42;49.31
50702;BME280;36670;50.094;8.496;2023-03-23T00:13:07;99492.34;;;15.64;48.50
50702;BME280;36670;50.094;8.496;2023-03-23T00:15:33;99486.97;;;15.68;48.58
50702;BME280;36670;50.094;8.496;2023-03-23T00:18:01;99487.03;;;15.49;49.03
50702;BME280;36670;50.094;8.496;2023-03-23T00:20:30;99489.66;;;15.59;49.06
50702;BME280;36670;50.094;8.496;2023-03-23T00:23:05;99489.56;;;15.64;48.79
50702;BME280;36670;50.094;8.496;2023-03-23T00:25:31;99490.84;;;15.53;48.91
50702;BME280;36670;50.094;8.496;2023-03-23T00:27:57;99483.00;;;15.41;49.38
50702;BME280;36670;50.094;8.496;2023-03-23T00:30:22;99481.06;;;15.56;49.57
50702;BME280;36670;50.094;8.496;2023-03-23T00:32:47;99486.34;;;15.57;49.03
50702;BME280;36670;50.094;8.496;2023-03-23T00:35:13;99476.09;;;15.39;49.28
50702;BME280;36670;50.094;8.496;2023-03-23T00:37:38;99474.63;;;15.27;49.71
50702;BME280;36670;50.094;8.496;2023-03-23T00:40:04;99473.19;;;15.30;50.12
50702;BME280;36670;50.094;8.496;2023-03-23T00:42:34;99464.16;;;15.38;49.47
50702;BME280;36670;50.094;8.496;2023-03-23T00:45:02;99466.00;;;15.43;50.18
50702;BME280;36670;50.094;8.496;2023-03-23T00:47:29;99464.78;;;15.49;49.71
50702;BME280;36670;50.094;8.496;2023-03-23T00:49:55;99459.53;;;15.61;49.46
50702;BME280;36670;50.094;8.496;2023-03-23T00:52:23;99452.94;;;15.43;49.93
50702;BME280;36670;50.094;8.496;2023-03-23T00:54:48;99453.06;;;15.52;49.86
50702;BME280;36670;50.094;8.496;2023-03-23T00:57:14;99455.41;;;15.59;49.66
50702;BME280;36670;50.094;8.496;2023-03-23T00:59:39;99457.22;;;15.68;49.35
50702;BME280;36670;50.094;8.496;2023-03-23T01:02:05;99462.19;;;15.85;49.26
50702;BME280;36670;50.094;8.496;2023-03-23T01:04:30;99466.56;;;15.73;49.29
50702;BME280;36670;50.094;8.496;2023-03-23T01:06:57;99461.75;;;15.64;49.74
50702;BME280;36670;50.094;8.496;2023-03-23T01:09:22;99453.69;;;15.63;49.29
50702;BME280;36670;50.094;8.496;2023-03-23T01:11:49;99456.03;;;15.56;49.65
50702;BME280;36670;50.094;8.496;2023-03-23T01:14:17;99445.22;;;15.54;49.55
50702;BME280;36670;50.094;8.496;2023-03-23T01:16:42;99452.56;;;15.64;50.00
50702;BME280;36670;50.094;8.496;2023-03-23T01:19:08;99452.84;;;15.62;49.80
50702;BME280;36670;50.094;8.496;2023-03-23T01:21:33;99451.34;;;15.70;49.83
50702;BME280;36670;50.094;8.496;2023-03-23T01:23:59;99457.69;;;15.57;49.96
50702;BME280;36670;50.094;8.496;2023-03-23T01:26:26;99450.91;;;15.63;49.54
50702;BME280;36670;50.094;8.496;2023-03-23T01:28:52;99450.59;;;15.50;50.49
50702;BME280;36670;50.094;8.496;2023-03-23T01:31:20;99453.34;;;15.36;50.60
50702;BME280;36670;50.094;8.496;2023-03-23T01:33:46;99460.06;;;15.49;50.38
50702;BME280;36670;50.094;8.496;2023-03-23T01:36:14;99458.78;;;15.42;50.41
50702;BME280;36670;50.094;8.496;2023-03-23T01:38:40;99436.94;;;15.35;50.36
50702;BME280;36670;50.094;8.496;2023-03-23T01:41:06;99433.00;;;15.22;50.73
50702;BME280;36670;50.094;8.496;2023-03-23T01:43:31;99437.88;;;15.30;51.08
50702;BME280;36670;50.094;8.496;2023-03-23T01:45:57;99436.94;;;15.35;50.89
50702;BME280;36670;50.094;8.496;2023-03-23T01:48:29;99439.63;;;15.40;50.78
50702;BME280;36670;50.094;8.496;2023-03-23T01:50:57;99440.84;;;15.20;50.91
50702;BME280;36670;50.094;8.496;2023-03-23T01:53:27;99429.53;;;15.30;50.72
50702;BME280;36670;50.094;8.496;2023-03-23T01:55:56;99431.34;;;15.21;50.78
50702;BME280;36670;50.094;8.496;2023-03-23T01:58:26;99431.44;;;15.16;51.75
50702;BME280;36670;50.094;8.496;2023-03-23T02:00:54;99439.28;;;15.28;50.89
50702;BME280;36670;50.094;8.496;2023-03-23T02:03:21;99436.09;;;15.21;51.14
50702;BME280;36670;50.094;8.496;2023-03-23T02:05:48;99441.84;;;15.10;51.91
50702;BME280;36670;50.094;8.496;2023-03-23T02:08:14;99440.84;;;15.20;51.00
50702;BME280;36670;50.094;8.496;2023-03-23T02:10:41;99442.28;;;15.17;51.81
50702;BME280;36670;50.094;8.496;2023-03-23T02:13:08;99440.53;;;15.22;51.33
50702;BME280;36670;50.094;8.496;2023-03-23T02:16:00;99439.19;;;15.19;51.32
50702;BME280;36670;50.094;8.496;2023-03-23T02:18:37;99427.50;;;15.03;51.88
50702;BME280;36670;50.094;8.496;2023-03-23T02:21:20;99424.50;;;14.99;51.97
50702;BME280;36670;50.094;8.496;2023-03-23T02:26:58;99415.53;;;15.02;51.99
50702;BME280;36670;50.094;8.496;2023-03-23T02:29:58;99413.34;;;15.18;51.91
50702;BME280;36670;50.094;8.496;2023-03-23T02:38:42;99427.34;;;15.27;51.23
50702;BME280;36670;50.094;8.496;2023-03-23T02:41:10;99428.31;;;15.36;51.22
50702;BME280;36670;50.094;8.496;2023-03-23T02:43:40;99426.56;;;15.41;51.70
50702;BME280;36670;50.094;8.496;2023-03-23T02:46:09;99414.91;;;15.39;52.35
50702;BME280;36670;50.094;8.496;2023-03-23T02:48:36;99413.22;;;15.24;52.53
50702;BME280;36670;50.094;8.496;2023-03-23T02:51:04;99412.91;;;15.25;52.98
50702;BME280;36670;50.094;8.496;2023-03-23T02:53:30;99409.56;;;15.28;53.72
50702;BME280;36670;50.094;8.496;2023-03-23T02:55:59;99387.06;;;15.11;54.36
50702;BME280;36670;50.094;8.496;2023-03-23T02:58:28;99404.81;;;14.96;54.29
50702;BME280;36670;50.094;8.496;2023-03-23T03:00:54;99397.34;;;14.77;55.03
50702;BME280;36670;50.094;8.496;2023-03-23T03:03:23;99408.41;;;14.63;55.36
50702;BME280;36670;50.094;8.496;2023-03-23T03:08:53;99399.47;;;14.66;56.42
50702;BME280;36670;50.094;8.496;2023-03-23T03:11:21;99394.66;;;14.72;56.01
50702;BME280;36670;50.094;8.496;2023-03-23T03:14:08;99385.63;;;14.80;56.18
50702;BME280;36670;50.094;8.496;2023-03-23T03:16:38;99379.06;;;14.90;55.73
50702;BME280;36670;50.094;8.496;2023-03-23T03:19:12;99387.56;;;14.99;55.25
50702;BME280;36670;50.094;8.496;2023-03-23T03:21:44;99391.97;;;15.00;56.29
50702;BME280;36670;50.094;8.496;2023-03-23T03:24:14;99387.66;;;15.08;55.21
50702;BME280;36670;50.094;8.496;2023-03-23T03:26:43;99393.53;;;15.06;56.07
50702;BME280;36670;50.094;8.496;2023-03-23T03:29:22;99381.56;;;15.06;56.31
50702;BME280;36670;50.094;8.496;2023-03-23T03:31:49;99392.34;;;14.93;56.35
50702;BME280;36670;50.094;8.496;2023-03-23T03:34:16;99388.38;;;14.99;56.88
50702;BME280;36670;50.094;8.496;2023-03-23T03:36:44;99382.38;;;14.92;56.57
50702;BME280;36670;50.094;8.496;2023-03-23T03:39:11;99392.22;;;14.84;57.08
50702;BME280;36670;50.094;8.496;2023-03-23T03:41:38;99394.50;;;14.82;57.26
50702;BME280;36670;50.094;8.496;2023-03-23T03:44:04;99396.00;;;14.75;56.97
50702;BME280;36670;50.094;8.496;2023-03-23T03:46:30;99389.22;;;14.62;58.89
50702;BME280;36670;50.094;8.496;2023-03-23T03:49:00;99404.63;;;14.16;59.24
50702;BME280;36670;50.094;8.496;2023-03-23T03:51:27;99403.09;;;14.05;59.19
50702;BME280;36670;50.094;8.496;2023-03-23T03:53:53;99394.03;;;14.18;58.84
50702;BME280;36670;50.094;8.496;2023-03-23T03:56:18;99388.56;;;14.32;58.94
50702;BME280;36670;50.094;8.496;2023-03-23T03:58:45;99395.16;;;14.36;58.97
50702;BME280;36670;50.094;8.496;2023-03-23T04:01:11;99394.59;;;14.39;59.00
50702;BME280;36670;50.094;8.496;2023-03-23T04:03:37;99394.03;;;14.56;58.47
50702;BME280;36670;50.094;8.496;2023-03-23T04:06:03;99397.13;;;14.74;58.50
50702;BME280;36670;50.094;8.496;2023-03-23T04:08:29;99392.53;;;14.83;58.14
50702;BME280;36670;50.094;8.496;2023-03-23T04:10:54;99395.31;;;14.83;57.62
50702;BME280;36670;50.094;8.496;2023-03-23T04:13:20;99378.06;;;14.67;58.26
50702;BME280;36670;50.094;8.496;2023-03-23T04:15:46;99392.25;;;14.65;58.13
50702;BME280;36670;50.094;8.496;2023-03-23T04:18:12;99399.75;;;14.65;58.83
50702;BME280;36670;50.094;8.496;2023-03-23T04:20:40;99407.94;;;14.56;58.75
50702;BME280;36670;50.094;8.496;2023-03-23T04:23:06;99417.25;;;14.65;58.63
50702;BME280;36670;50.094;8.496;2023-03-23T04:25:31;99409.44;;;14.67;59.42
50702;BME280;36670;50.094;8.496;2023-03-23T04:27:58;99410.16;;;14.54;59.40
50702;BME280;36670;50.094;8.496;2023-03-23T04:30:27;99412.59;;;14.23;60.11
50702;BME280;36670;50.094;8.496;2023-03-23T04:32:52;99426.16;;;14.24;59.73
50702;BME280;36670;50.094;8.496;2023-03-23T04:35:22;99422.34;;;14.20;60.00
50702;BME280;36670;50.094;8.496;2023-03-23T04:37:49;99425.41;;;14.19;59.77
50702;BME280;36670;50.094;8.496;2023-03-23T04:40:16;99414.38;;;14.13;60.26
50702;BME280;36670;50.094;8.496;2023-03-23T04:42:43;99419.22;;;14.03;60.46
50702;BME280;36670;50.094;8.496;2023-03-23T04:45:18;99429.34;;;14.12;59.99
50702;BME280;36670;50.094;8.496;2023-03-23T04:47:47;99423.44;;;14.19;59.90
50702;BME280;36670;50.094;8.496;2023-03-23T04:50:21;99423.44;;;14.19;59.41
50702;BME280;36670;50.094;8.496;2023-03-23T04:52:49;99402.22;;;14.09;59.82
50702;BME280;36670;50.094;8.496;2023-03-23T04:55:16;99420.56;;;14.29;59.32
50702;BME280;36670;50.094;8.496;2023-03-23T04:57:42;99409.59;;;14.38;59.21
50702;BME280;36670;50.094;8.496;2023-03-23T05:00:08;99411.31;;;14.34;59.08
50702;BME280;36670;50.094;8.496;2023-03-23T05:02:36;99422.81;;;14.46;59.13
50702;BME280;36670;50.094;8.496;2023-03-23T05:05:01;99407.13;;;14.37;59.41
50702;BME280;36670;50.094;8.496;2023-03-23T05:07:26;99417.06;;;14.57;59.28
50702;BME280;36670;50.094;8.496;2023-03-23T05:09:52;99420.47;;;14.54;59.57
50702;BME280;36670;50.094;8.496;2023-03-23T05:12:17;99405.53;;;14.49;59.40
50702;BME280;36670;50.094;8.496;2023-03-23T05:14:42;99427.69;;;14.55;59.64
50702;BME280;36670;50.094;8.496;2023-03-23T05:17:08;99430.81;;;14.48;59.03
50702;BME280;36670;50.094;8.496;2023-03-23T05:19:34;99417.44;;;14.50;59.58
50702;BME280;36670;50.094;8.496;2023-03-23T05:22:01;99424.22;;;14.44;60.24
50702;BME280;36670;50.094;8.496;2023-03-23T05:24:32;99428.13;;;14.43;59.37
50702;BME280;36670;50.094;8.496;2023-03-23T05:26:59;99421.56;;;14.14;60.35
50702;BME280;36670;50.094;8.496;2023-03-23T05:29:24;99430.81;;;14.10;60.30
50702;BME280;36670;50.094;8.496;2023-03-23T05:31:50;99428.25;;;14.13;60.22
50702;BME280;36670;50.094;8.496;2023-03-23T05:34:15;99429.84;;;14.20;61.54
50702;BME280;36670;50.094;8.496;2023-03-23T05:36:41;99435.41;;;14.20;60.98
50702;BME280;36670;50.094;8.496;2023-03-23T05:39:10;99420.75;;;14.33;60.52
50702;BME280;36670;50.094;8.496;2023-03-23T05:41:35;99431.72;;;14.24;61.62
50702;BME280;36670;50.094;8.496;2023-03-23T05:44:01;99428.63;;;14.26;61.96
50702;BME280;36670;50.094;8.496;2023-03-23T05:46:27;99434.50;;;14.24;62.18
50702;BME280;36670;50.094;8.496;2023-03-23T05:48:53;99436.22;;;14.20;62.35
50702;BME280;36670;50.094;8.496;2023-03-23T05:51:19;99443.88;;;14.28;62.49
50702;BME280;36670;50.094;8.496;2023-03-23T05:53:45;99446.50;;;14.20;62.18
50702;BME280;36670;50.094;8.496;2023-03-23T05:56:10;99445.84;;;14.04;62.89
50702;BME280;36670;50.094;8.496;2023-03-23T05:58:36;99458.31;;;14.06;63.25
50702;BME280;36670;50.094;8.496;2023-03-23T06:01:06;99460.03;;;14.02;63.19
50702;BME280;36670;50.094;8.496;2023-03-23T06:03:31;99469.13;;;14.08;63.16
50702;BME280;36670;50.094;8.496;2023-03-23T06:05:56;99447.41;;;13.91;63.25
50702;BME280;36670;50.094;8.496;2023-03-23T06:08:22;99443.03;;;14.09;63.27
50702;BME280;36670;50.094;8.496;2023-03-23T06:10:49;99443.47;;;14.16;63.45
50702;BME280;36670;50.094;8.496;2023-03-23T06:13:14;99453.00;;;14.10;63.11
50702;BME280;36670;50.094;8.496;2023-03-23T06:15:39;99460.66;;;14.18;62.96
50702;BME280;36670;50.094;8.496;2023-03-23T06:18:05;99468.22;;;14.12;63.83
50702;BME280;36670;50.094;8.496;2023-03-23T06:20:30;99466.94;;;14.05;63.81
50702;BME280;36670;50.094;8.496;2023-03-23T06:22:55;99466.34;;;14.08;64.21
50702;BME280;36670;50.094;8.496;2023-03-23T06:25:22;99473.09;;;14.02;64.15
50702;BME280;36670;50.094;8.496;2023-03-23T06:27:47;99471.53;;;14.14;63.89
50702;BME280;36670;50.094;8.496;2023-03-23T06:30:13;99470.69;;;14.14;64.31
50702;BME280;36670;50.094;8.496;2023-03-23T06:32:40;99474.03;;;14.16;64.71
50702;BME280;36670;50.094;8.496;2023-03-23T06:35:08;99475.53;;;14.27;64.71
50702;BME280;36670;50.094;8.496;2023-03-23T06:37:35;99484.81;;;14.17;64.93
50702;BME280;36670;50.094;8.496;2023-03-23T06:40:01;99474.25;;;14.20;64.80
50702;BME280;36670;50.094;8.496;2023-03-23T06:42:29;99490.31;;;14.23;64.52
50702;BME280;36670;50.094;8.496;2023-03-23T06:44:54;99484.22;;;14.21;64.97
50702;BME280;36670;50.094;8.496;2023-03-23T06:47:21;99491.97;;;14.24;64.68
50702;BME280;36670;50.094;8.496;2023-03-23T06:49:48;99477.72;;;14.30;64.59
50702;BME280;36670;50.094;8.496;2023-03-23T06:52:13;99484.88;;;14.37;64.59
50702;BME280;36670;50.094;8.496;2023-03-23T06:54:38;99485.97;;;14.36;64.43
50702;BME280;36670;50.094;8.496;2023-03-23T06:57:04;99471.69;;;14.47;64.96
50702;BME280;36670;50.094;8.496;2023-03-23T06:59:29;99471.94;;;14.46;64.89
50702;BME280;36670;50.094;8.496;2023-03-23T07:01:54;99471.78;;;14.37;64.70
50702;BME280;36670;50.094;8.496;2023-03-23T07:04:20;99479.25;;;14.61;64.30
50702;BME280;36670;50.094;8.496;2023-03-23T07:06:46;99484.28;;;14.59;64.27
50702;BME280;36670;50.094;8.496;2023-03-23T07:09:11;99493.03;;;14.47;64.53
50702;BME280;36670;50.094;8.496;2023-03-23T07:11:37;99500.78;;;14.50;64.85
50702;BME280;36670;50.094;8.496;2023-03-23T07:14:02;99501.91;;;14.49;64.72
50702;BME280;36670;50.094;8.496;2023-03-23T07:16:28;99499.59;;;14.56;64.74
50702;BME280;36670;50.094;8.496;2023-03-23T07:18:53;99500.88;;;14.45;64.59
50702;BME280;36670;50.094;8.496;2023-03-23T07:21:18;99502.22;;;14.47;65.14
50702;BME280;36670;50.094;8.496;2023-03-23T07:23:43;99503.84;;;14.48;65.25
50702;BME280;36670;50.094;8.496;2023-03-23T07:26:11;99504.03;;;14.57;64.92
50702;BME280;36670;50.094;8.496;2023-03-23T07:28:36;99505.72;;;14.77;64.81
50702;BME280;36670;50.094;8.496;2023-03-23T07:31:02;99504.34;;;14.75;63.98
50702;BME280;36670;50.094;8.496;2023-03-23T07:33:27;99517.50;;;14.69;64.73
50702;BME280;36670;50.094;8.496;2023-03-23T07:35:52;99518.09;;;14.66;64.68
50702;BME280;36670;50.094;8.496;2023-03-23T07:38:18;99518.75;;;14.58;65.00
50702;BME280;36670;50.094;8.496;2023-03-23T07:40:43;99511.31;;;14.53;65.98
50702;BME280;36670;50.094;8.496;2023-03-23T07:43:09;99505.56;;;14.44;65.83
50702;BME280;36670;50.094;8.496;2023-03-23T07:45:34;99514.00;;;14.58;65.48
50702;BME280;36670;50.094;8.496;2023-03-23T07:47:59;99514.88;;;14.78;65.44
50702;BME280;36670;50.094;8.496;2023-03-23T07:50:26;99506.75;;;14.81;65.35
50702;BME280;36670;50.094;8.496;2023-03-23T07:52:56;99518.41;;;15.02;64.93
50702;BME280;36670;50.094;8.496;2023-03-23T07:55:22;99526.53;;;14.99;64.81
50702;BME280;36670;50.094;8.496;2023-03-23T07:57:50;99521.03;;;14.94;65.18
50702;BME280;36670;50.094;8.496;2023-03-23T08:00:17;99531.38;;;14.69;66.15
50702;BME280;36670;50.094;8.496;2023-03-23T08:02:49;99531.47;;;14.83;65.94
50702;BME280;36670;50.094;8.496;2023-03-23T08:05:16;99541.84;;;14.77;65.64
50702;BME280;36670;50.094;8.496;2023-03-23T08:07:44;99543.25;;;14.75;65.50
50702;BME280;36670;50.094;8.496;2023-03-23T08:10:11;99544.94;;;14.95;64.88
50702;BME280;36670;50.094;8.496;2023-03-23T08:12:38;99538.31;;;14.91;64.99
50702;BME280;36670;50.094;8.496;2023-03-23T08:15:05;99544.69;;;14.72;65.27
50702;BME280;36670;50.094;8.496;2023-03-23T08:17:31;99551.22;;;14.81;65.28
50702;BME280;36670;50.094;8.496;2023-03-23T08:19:58;99546.97;;;14.89;64.90
50702;BME280;36670;50.094;8.496;2023-03-23T08:22:23;99544.41;;;14.93;64.59
50702;BME280;36670;50.094;8.496;2023-03-23T08:24:48;99543.28;;;14.94;64.77
50702;BME280;36670;50.094;8.496;2023-03-23T08:27:13;99543.03;;;14.90;64.71
50702;BME280;36670;50.094;8.496;2023-03-23T08:29:39;99552.38;;;14.99;65.06
50702;BME280;36670;50.094;8.496;2023-03-23T08:32:05;99569.47;;;15.07;64.96
50702;BME280;36670;50.094;8.496;2023-03-23T08:34:31;99561.38;;;14.91;64.33
50702;BME280;36670;50.094;8.496;2023-03-23T08:36:56;99562.34;;;14.81;64.47
50702;BME280;36670;50.094;8.496;2023-03-23T08:39:22;99575.22;;;14.96;64.84
50702;BME280;36670;50.094;8.496;2023-03-23T08:41:49;99580.47;;;14.98;64.76
50702;BME280;36670;50.094;8.496;2023-03-23T08:44:14;99576.91;;;15.11;64.71
50702;BME280;36670;50.094;8.496;2023-03-23T08:46:40;99574.06;;;15.16;64.73
50702;BME280;36670;50.094;8.496;2023-03-23T08:49:05;99563.50;;;15.18;64.00
50702;BME280;36670;50.094;8.496;2023-03-23T08:51:31;99565.66;;;15.22;64.55
50702;BME280;36670;50.094;8.496;2023-03-23T08:53:56;99555.28;;;15.27;64.45
50702;BME280;36670;50.094;8.496;2023-03-23T08:56:22;99559.91;;;15.32;63.67
50702;BME280;36670;50.094;8.496;2023-03-23T08:58:47;99563.59;;;15.46;63.35
50702;BME280;36670;50.094;8.496;2023-03-23T09:01:14;99558.84;;;15.47;63.18
50702;BME280;36670;50.094;8.496;2023-03-23T09:03:40;99564.22;;;15.57;63.75
50702;BME280;36670;50.094;8.496;2023-03-23T09:06:07;99562.94;;;15.68;62.99
50702;BME280;36670;50.094;8.496;2023-03-23T09:08:36;99551.03;;;15.82;62.77
50702;BME280;36670;50.094;8.496;2023-03-23T09:11:04;99564.03;;;15.86;62.78
50702;BME280;36670;50.094;8.496;2023-03-23T09:13:30;99552.50;;;15.93;62.22
50702;BME280;36670;50.094;8.496;2023-03-23T09:15:56;99558.19;;;16.02;62.04
50702;BME280;36670;50.094;8.496;2023-03-23T09:18:23;99563.66;;;16.21;61.94
50702;BME280;36670;50.094;8.496;2023-03-23T09:20:53;99551.38;;;16.64;61.10
50702;BME280;36670;50.094;8.496;2023-03-23T09:23:19;99549.56;;;17.10;59.94
50702;BME280;36670;50.094;8.496;2023-03-23T09:25:46;99542.75;;;17.02;59.61
50702;BME280;36670;50.094;8.496;2023-03-23T09:28:11;99546.50;;;16.83;59.71
50702;BME280;36670;50.094;8.496;2023-03-23T09:30:38;99553.34;;;16.77;60.25
50702;BME280;36670;50.094;8.496;2023-03-23T09:33:04;99560.88;;;16.63;60.50
50702;BME280;36670;50.094;8.496;2023-03-23T09:35:32;99550.69;;;16.44;60.67
50702;BME280;36670;50.094;8.496;2023-03-23T09:37:59;99547.88;;;16.58;59.93
50702;BME280;36670;50.094;8.496;2023-03-23T09:40:29;99551.75;;;16.85;59.65
50702;BME280;36670;50.094;8.496;2023-03-23T09:43:13;99547.47;;;17.15;58.58
50702;BME280;36670;50.094;8.496;2023-03-23T09:51:45;99545.47;;;17.84;57.73
50702;BME280;36670;50.094;8.496;2023-03-23T09:54:34;99566.00;;;17.79;57.34
50702;BME280;36670;50.094;8.496;2023-03-23T09:57:02;99571.72;;;17.51;56.62
50702;BME280;36670;50.094;8.496;2023-03-23T09:59:34;99578.25;;;17.10;55.93
50702;BME280;36670;50.094;8.496;2023-03-23T10:04:49;99571.91;;;16.96;56.66
50702;BME280;36670;50.094;8.496;2023-03-23T10:07:22;99585.44;;;16.75;56.69
50702;BME280;36670;50.094;8.496;2023-03-23T10:09:54;99580.59;;;16.52;57.27
50702;BME280;36670;50.094;8.496;2023-03-23T10:12:27;99588.34;;;16.28;58.53
50702;BME280;36670;50.094;8.496;2023-03-23T10:15:14;99590.63;;;16.26;59.60
50702;BME280;36670;50.094;8.496;2023-03-23T10:17:58;99596.59;;;16.47;59.53
50702;BME280;36670;50.094;8.496;2023-03-23T10:20:50;99598.66;;;16.55;59.55
50702;BME280;36670;50.094;8.496;2023-03-23T10:28:44;99604.03;;;16.65;59.72
50702;BME280;36670;50.094;8.496;2023-03-23T10:31:18;99607.13;;;16.64;58.87
50702;BME280;36670;50.094;8.496;2023-03-23T10:33:47;99604.44;;;16.59;58.85
50702;BME280;36670;50.094;8.496;2023-03-23T10:36:29;99605.97;;;16.79;58.61
50702;BME280;36670;50.094;8.496;2023-03-23T10:39:06;99604.63;;;16.76;58.03
50702;BME280;36670;50.094;8.496;2023-03-23T10:41:34;99601.84;;;16.76;57.28
50702;BME280;36670;50.094;8.496;2023-03-23T10:44:00;99593.09;;;16.69;57.34
50702;BME280;36670;50.094;8.496;2023-03-23T10:46:34;99597.50;;;16.70;57.16
50702;BME280;36670;50.094;8.496;2023-03-23T10:49:08;99600.81;;;16.86;56.52
50702;BME280;36670;50.094;8.496;2023-03-23T10:51:40;99599.56;;;16.78;56.97
50702;BME280;36670;50.094;8.496;2023-03-23T10:54:06;99593.19;;;16.78;56.26
50702;BME280;36670;50.094;8.496;2023-03-23T10:56:41;99598.66;;;16.83;56.79
50702;BME280;36670;50.094;8.496;2023-03-23T10:59:28;99599.88;;;16.91;56.77
50702;BME280;36670;50.094;8.496;2023-03-23T11:02:00;99602.38;;;16.92;56.10
50702;BME280;36670;50.094;8.496;2023-03-23T11:04:27;99604.31;;;16.78;56.52
50702;BME280;36670;50.094;8.496;2023-03-23T11:06:58;99601.22;;;16.65;56.89
50702;BME280;36670;50.094;8.496;2023-03-23T11:09:39;99597.41;;;16.47;56.98
50702;BME280;36670;50.094;8.496;2023-03-23T11:12:16;99588.66;;;16.54;56.81
50702;BME280;36670;50.094;8.496;2023-03-23T11:14:42;99603.28;;;16.73;56.19
50702;BME280;36670;50.094;8.496;2023-03-23T11:17:24;99601.00;;;16.76;56.22
50702;BME280;36670;50.094;8.496;2023-03-23T11:19:49;99608.38;;;16.99;56.27
50702;BME280;36670;50.094;8.496;2023-03-23T11:22:29;99608.44;;;17.45;56.37
50702;BME280;36670;50.094;8.496;2023-03-23T11:25:00;99603.91;;;17.57;55.12
50702;BME280;36670;50.094;8.496;2023-03-23T11:27:27;99582.88;;;17.51;55.01
50702;BME280;36670;50.094;8.496;2023-03-23T11:29:56;99588.84;;;18.04;54.88
50702;BME280;36670;50.094;8.496;2023-03-23T11:32:25;99584.53;;;18.29;54.09
50702;BME280;36670;50.094;8.496;2023-03-23T11:34:56;99589.47;;;18.32;53.88
50702;BME280;36670;50.094;8.496;2023-03-23T11:37:38;99583.00;;;18.23;53.33
50702;BME280;36670;50.094;8.496;2023-03-23T11:45:24;99593.59;;;18.43;53.17
50702;BME280;36670;50.094;8.496;2023-03-23T11:48:15;99595.94;;;18.50;52.71
50702;BME280;36670;50.094;8.496;2023-03-23T11:56:34;99589.16;;;18.42;52.58
50702;BME280;36670;50.094;8.496;2023-03-23T11:59:00;99590.91;;;18.30;53.12
50702;BME280;36670;50.094;8.496;2023-03-23T12:07:50;99597.66;;;17.97;53.29
50702;BME280;36670;50.094;8.496;2023-03-23T12:10:38;99589.28;;;17.74;53.11
50702;BME280;36670;50.094;8.496;2023-03-23T12:13:32;99601.19;;;17.44;53.88
50702;BME280;36670;50.094;8.496;2023-03-23T12:16:29;99587.25;;;17.44;54.47
50702;BME280;36670;50.094;8.496;2023-03-23T12:27:20;99557.50;;;17.62;55.43
50702;BME280;36670;50.094;8.496;2023-03-23T12:30:04;99559.59;;;17.79;54.79
50702;BME280;36670;50.094;8.496;2023-03-23T12:32:58;99544.28;;;17.99;54.25
50702;BME280;36670;50.094;8.496;2023-03-23T12:35:38;99534.16;;;18.12;54.32
50702;BME280;36670;50.094;8.496;2023-03-23T12:38:20;99532.88;;;18.18;53.82
50702;BME280;36670;50.094;8.496;2023-03-23T12:41:05;99532.25;;;18.30;54.06
50702;BME280;36670;50.094;8.496;2023-03-23T12:43:42;99544.03;;;18.18;53.53
50702;BME280;36670;50.094;8.496;2023-03-23T12:48:42;99527.31;;;17.95;53.49
50702;BME280;36670;50.094;8.496;2023-03-23T12:53:47;99539.28;;;18.27;53.08
50702;BME280;36670;50.094;8.496;2023-03-23T12:56:39;99527.91;;;18.15;53.38
50702;BME280;36670;50.094;8.496;2023-03-23T12:59:25;99544.38;;;18.16;53.48
50702;BME280;36670;50.094;8.496;2023-03-23T13:02:01;99552.22;;;18.14;53.30
50702;BME280;36670;50.094;8.496;2023-03-23T13:04:32;99564.66;;;18.39;53.30
50702;BME280;36670;50.094;8.496;2023-03-23T13:07:02;99571.91;;;18.40;52.67
50702;BME280;36670;50.094;8.496;2023-03-23T13:09:49;99552.66;;;18.39;53.14
50702;BME280;36670;50.094;8.496;2023-03-23T13:12:16;99562.38;;;18.41;52.69
50702;BME280;36670;50.094;8.496;2023-03-23T13:15:04;99536.84;;;18.34;52.98
50702;BME280;36670;50.094;8.496;2023-03-23T13:17:48;99541.50;;;18.39;53.05
50702;BME280;36670;50.094;8.496;2023-03-23T13:20:40;99523.72;;;18.35;53.24
50702;BME280;36670;50.094;8.496;2023-03-23T13:23:28;99522.94;;;18.60;52.92
50702;BME280;36670;50.094;8.496;2023-03-23T13:26:01;99511.75;;;18.60;52.18
50702;BME280;36670;50.094;8.496;2023-03-23T13:28:31;99522.47;;;18.67;52.26
50702;BME280;36670;50.094;8.496;2023-03-23T13:31:02;99523.94;;;18.65;51.87
50702;BME280;36670;50.094;8.496;2023-03-23T13:33:33;99523.94;;;18.65;51.76
50702;BME280;36670;50.094;8.496;2023-03-23T13:36:37;99527.41;;;18.70;51.92
50702;BME280;36670;50.094;8.496;2023-03-23T13:39:06;99539.38;;;18.53;52.23
50702;BME280;36670;50.094;8.496;2023-03-23T13:41:33;99542.31;;;18.39;52.18
50702;BME280;36670;50.094;8.496;2023-03-23T13:44:23;99529.78;;;18.28;52.21
50702;BME280;36670;50.094;8.496;2023-03-23T13:49:56;99533.38;;;18.29;52.05
50702;BME280;36670;50.094;8.496;2023-03-23T13:52:24;99533.13;;;18.07;52.69
50702;BME280;36670;50.094;8.496;2023-03-23T13:54:52;99534.56;;;17.96;53.41
50702;BME280;36670;50.094;8.496;2023-03-23T13:57:36;99530.97;;;17.96;52.92
50702;BME280;36670;50.094;8.496;2023-03-23T14:02:49;99535.25;;;18.02;53.19
50702;BME280;36670;50.094;8.496;2023-03-23T14:08:01;99533.63;;;17.78;53.30
50702;BME280;36670;50.094;8.496;2023-03-23T14:10:34;99528.97;;;17.42;54.20
50702;BME280;36670;50.094;8.496;2023-03-23T14:13:00;99533.72;;;17.42;54.05
50702;BME280;36670;50.094;8.496;2023-03-23T14:15:37;99537.38;;;17.28;54.64
50702;BME280;36670;50.094;8.496;2023-03-23T14:18:05;99536.94;;;17.35;54.86